createdAt,value
2022-08-10T00:01:48.495Z,17.60
2022-08-10T00:04:21.351Z,17.60
2022-08-10T00:06:49.529Z,17.50
2022-08-10T00:09:16.311Z,17.40
2022-08-10T00:11:43.159Z,17.30
2022-08-10T00:14:09.945Z,17.40
2022-08-10T00:16:36.769Z,17.50
2022-08-10T00:19:03.559Z,17.30
2022-08-10T00:21:30.308Z,16.90
2022-08-10T00:23:57.115Z,17.00
2022-08-10T00:26:23.843Z,16.70
2022-08-10T00:28:50.629Z,17.20
2022-08-10T00:31:17.393Z,16.70
2022-08-10T00:33:44.188Z,16.80
2022-08-10T00:36:11.008Z,16.80
2022-08-10T00:38:37.766Z,16.30
2022-08-10T00:41:04.973Z,16.20
2022-08-10T00:43:32.270Z,15.30
2022-08-10T00:46:00.437Z,16.50
2022-08-10T00:48:31.615Z,16.10
2022-08-10T00:50:59.885Z,16.30
2022-08-10T00:53:28.138Z,16.30
2022-08-10T00:57:10.054Z,16.50
2022-08-10T00:58:43.928Z,16.30
2022-08-10T01:02:07.604Z,16.30
2022-08-10T01:04:40.326Z,16.30
2022-08-10T01:07:08.664Z,16.50
2022-08-10T01:09:59.569Z,16.50
2022-08-10T01:12:45.646Z,16.40
2022-08-10T01:15:33.124Z,16.40
2022-08-10T01:18:20.800Z,16.40
2022-08-10T01:20:47.471Z,16.30
2022-08-10T01:23:51.379Z,16.70
2022-08-10T01:26:40.517Z,16.20
2022-08-10T01:29:51.199Z,16.10
2022-08-10T01:32:24.774Z,16.10
2022-08-10T01:35:01.764Z,16.20
2022-08-10T01:37:34.395Z,16.20
2022-08-10T01:40:04.423Z,16.00
2022-08-10T01:42:34.517Z,16.20
2022-08-10T01:45:05.023Z,16.60
2022-08-10T01:47:54.352Z,16.00
2022-08-10T01:50:59.834Z,15.80
2022-08-10T01:53:40.334Z,15.80
2022-08-10T01:56:11.798Z,15.80
2022-08-10T01:58:39.673Z,15.70
2022-08-10T02:01:09.293Z,15.80
2022-08-10T02:04:05.330Z,15.80
2022-08-10T02:06:28.133Z,15.90
2022-08-10T02:09:06.410Z,15.90
2022-08-10T02:12:06.647Z,16.00
2022-08-10T02:14:33.921Z,15.90
2022-08-10T02:17:05.474Z,16.00
2022-08-10T02:19:35.528Z,15.90
2022-08-10T02:22:36.860Z,16.00
2022-08-10T02:24:50.899Z,16.00
2022-08-10T02:27:21.057Z,15.90
2022-08-10T02:29:49.057Z,15.80
2022-08-10T02:32:36.328Z,15.90
2022-08-10T02:35:08.624Z,15.90
2022-08-10T02:37:48.699Z,15.80
2022-08-10T02:45:03.660Z,15.70
2022-08-10T02:45:23.507Z,15.90
2022-08-10T02:46:10.816Z,15.80
2022-08-10T02:48:54.456Z,15.80
2022-08-10T02:52:06.955Z,15.70
2022-08-10T02:54:24.605Z,15.70
2022-08-10T02:57:09.987Z,15.70
2022-08-10T02:59:48.333Z,15.70
2022-08-10T03:02:25.174Z,15.90
2022-08-10T03:04:58.078Z,15.90
2022-08-10T03:07:43.495Z,15.80
2022-08-10T03:10:20.517Z,15.70
2022-08-10T03:12:55.273Z,15.60
2022-08-10T03:15:24.269Z,16.10
2022-08-10T03:17:56.821Z,15.90
2022-08-10T03:20:37.083Z,15.40
2022-08-10T03:23:16.414Z,15.40
2022-08-10T03:25:53.276Z,15.50
2022-08-10T03:28:23.178Z,15.30
2022-08-10T03:30:55.534Z,15.20
2022-08-10T03:33:24.363Z,15.20
2022-08-10T03:36:40.096Z,15.10
2022-08-10T03:38:40.696Z,15.10
2022-08-10T03:41:15.880Z,15.00
2022-08-10T03:43:48.346Z,15.00
2022-08-10T03:46:19.134Z,15.10
2022-08-10T03:48:48.987Z,15.00
2022-08-10T03:51:20.427Z,15.00
2022-08-10T03:54:02.992Z,15.10
2022-08-10T03:56:38.769Z,14.90
2022-08-10T03:59:08.653Z,14.90
2022-08-10T04:02:41.682Z,14.80
2022-08-10T04:04:25.349Z,15.00
2022-08-10T04:06:58.600Z,15.00
2022-08-10T04:09:42.890Z,15.10
2022-08-10T04:12:18.234Z,15.10
2022-08-10T04:14:50.419Z,15.20
2022-08-10T04:18:05.168Z,15.20
2022-08-10T04:20:34.812Z,15.10
2022-08-10T04:23:06.558Z,15.10
2022-08-10T04:25:34.741Z,15.20
2022-08-10T04:28:03.285Z,15.20
2022-08-10T04:30:31.968Z,15.30
2022-08-10T04:33:00.800Z,15.30
2022-08-10T04:35:29.246Z,15.30
2022-08-10T04:37:58.140Z,15.30
2022-08-10T04:40:30.460Z,15.20
2022-08-10T04:43:11.260Z,15.10
2022-08-10T04:45:49.889Z,15.10
2022-08-10T04:48:40.181Z,15.20
2022-08-10T04:51:17.170Z,15.20
2022-08-10T04:54:05.411Z,15.30
2022-08-10T04:56:32.690Z,15.40
2022-08-10T04:59:00.669Z,15.40
2022-08-10T05:02:12.143Z,15.50
2022-08-10T05:04:35.233Z,15.50
2022-08-10T05:07:01.832Z,15.50
2022-08-10T05:09:28.692Z,15.60
2022-08-10T05:11:55.523Z,15.80
2022-08-10T05:14:22.465Z,15.80
2022-08-10T05:16:49.305Z,15.80
2022-08-10T05:19:16.130Z,15.80
2022-08-10T05:22:01.460Z,15.90
2022-08-10T05:24:31.502Z,15.90
2022-08-10T05:27:09.303Z,16.00
2022-08-10T05:29:37.679Z,16.00
2022-08-10T05:32:04.906Z,16.00
2022-08-10T05:34:31.742Z,16.10
2022-08-10T05:36:59.074Z,16.50
2022-08-10T05:39:32.072Z,16.20
2022-08-10T05:42:01.794Z,16.20
2022-08-10T05:44:29.887Z,16.10
2022-08-10T05:46:57.036Z,16.10
2022-08-10T05:49:24.185Z,16.20
2022-08-10T05:51:51.755Z,16.20
2022-08-10T05:54:19.012Z,16.30
2022-08-10T05:56:57.118Z,16.40
2022-08-10T06:00:10.845Z,16.50
2022-08-10T06:02:35.357Z,16.50
2022-08-10T06:05:12.789Z,16.60
2022-08-10T06:07:44.151Z,16.90
2022-08-10T06:10:14.127Z,16.80
2022-08-10T06:13:26.897Z,16.90
2022-08-10T06:16:02.666Z,17.00
2022-08-10T06:18:30.075Z,17.20
2022-08-10T06:20:58.012Z,17.20
2022-08-10T06:23:28.224Z,17.40
2022-08-10T06:26:10.292Z,17.40
2022-08-10T06:28:58.252Z,17.50
2022-08-10T06:31:47.611Z,18.60
2022-08-10T06:34:21.336Z,18.40
2022-08-10T06:36:49.009Z,18.00
2022-08-10T06:42:27.979Z,18.10
2022-08-10T06:45:08.938Z,18.30
2022-08-10T06:47:46.480Z,18.30
2022-08-10T06:50:34.966Z,18.40
2022-08-10T06:53:13.510Z,18.70
2022-08-10T06:55:55.542Z,18.70
2022-08-10T06:58:29.069Z,18.80
2022-08-10T07:00:56.933Z,18.90
2022-08-10T07:03:31.494Z,19.00
2022-08-10T07:05:58.969Z,19.10
2022-08-10T07:08:30.986Z,19.30
2022-08-10T07:10:58.364Z,19.40
2022-08-10T07:14:15.317Z,19.40
2022-08-10T07:16:14.511Z,19.50
2022-08-10T07:18:44.460Z,19.60
2022-08-10T07:21:13.465Z,19.60
2022-08-10T07:23:56.869Z,19.80
2022-08-10T07:26:29.405Z,20.40
2022-08-10T07:28:56.878Z,20.30
2022-08-10T07:31:36.153Z,20.00
2022-08-10T07:34:22.627Z,20.20
2022-08-10T07:36:58.832Z,20.60
2022-08-10T07:40:02.799Z,20.40
2022-08-10T07:42:18.876Z,20.50
2022-08-10T07:44:46.909Z,20.90
2022-08-10T07:47:53.648Z,20.70
2022-08-10T07:50:11.750Z,20.80
2022-08-10T07:52:40.011Z,20.90
2022-08-10T07:55:15.010Z,21.00
2022-08-10T07:57:44.521Z,21.00
2022-08-10T08:00:12.816Z,21.20
2022-08-10T08:02:51.803Z,21.20
2022-08-10T08:05:27.590Z,21.20
2022-08-10T08:08:09.946Z,21.30
2022-08-10T08:10:38.730Z,21.50
2022-08-10T08:13:05.968Z,21.50
2022-08-10T08:16:18.305Z,21.60
2022-08-10T08:18:25.458Z,21.70
2022-08-10T08:20:52.974Z,21.80
2022-08-10T08:24:05.629Z,21.80
2022-08-10T08:26:10.944Z,21.90
2022-08-10T08:28:38.528Z,22.00
2022-08-10T08:31:05.792Z,22.10
2022-08-10T08:33:42.071Z,22.10
2022-08-10T08:36:11.207Z,22.10
2022-08-10T08:38:38.833Z,22.20
2022-08-10T08:41:17.761Z,22.20
2022-08-10T08:44:09.403Z,22.30
2022-08-10T08:46:57.153Z,22.40
2022-08-10T08:50:07.895Z,22.50
2022-08-10T08:53:21.889Z,22.50
2022-08-10T08:56:05.749Z,22.60
2022-08-10T08:58:58.794Z,22.60
2022-08-10T09:02:05.501Z,22.70
2022-08-10T09:04:45.746Z,22.80
2022-08-10T09:07:56.232Z,22.90
2022-08-10T09:10:39.637Z,22.90
2022-08-10T09:13:29.741Z,22.90
2022-08-10T09:16:21.345Z,22.90
2022-08-10T09:18:59.705Z,23.00
2022-08-10T09:22:12.419Z,23.00
2022-08-10T09:24:46.290Z,23.00
2022-08-10T09:27:22.094Z,23.10
2022-08-10T09:29:57.763Z,23.10
2022-08-10T09:36:13.255Z,23.20
2022-08-10T09:36:28.905Z,23.30
2022-08-10T09:38:49.193Z,23.40
2022-08-10T09:41:41.368Z,23.50
2022-08-10T09:44:58.217Z,23.60
2022-08-10T09:47:58.831Z,23.70
2022-08-10T09:51:20.986Z,23.60
2022-08-10T09:53:45.680Z,23.70
2022-08-10T09:56:23.285Z,23.60
2022-08-10T09:59:27.032Z,23.70
2022-08-10T10:02:18.553Z,23.70
2022-08-10T10:05:24.785Z,23.80
2022-08-10T10:08:00.708Z,23.90
2022-08-10T10:10:37.046Z,23.90
2022-08-10T10:14:01.608Z,23.90
2022-08-10T10:16:39.094Z,23.90
2022-08-10T10:19:17.936Z,23.90
2022-08-10T10:22:14.016Z,24.00
2022-08-10T10:24:50.381Z,24.00
2022-08-10T10:27:32.546Z,24.00
2022-08-10T10:30:05.062Z,24.20
2022-08-10T10:32:37.235Z,24.20
2022-08-10T10:35:29.367Z,24.20
2022-08-10T10:38:00.758Z,24.10
2022-08-10T10:40:45.328Z,24.10
2022-08-10T10:43:33.814Z,24.20
2022-08-10T10:46:23.567Z,24.10
2022-08-10T10:49:14.511Z,24.20
2022-08-10T10:51:50.587Z,24.20
2022-08-10T10:54:54.115Z,24.40
2022-08-10T10:57:59.362Z,24.30
2022-08-10T11:00:22.049Z,24.30
2022-08-10T11:03:03.869Z,24.40
2022-08-10T11:06:00.807Z,24.50
2022-08-10T11:08:36.378Z,24.60
2022-08-10T11:11:21.635Z,24.80
2022-08-10T11:14:27.303Z,24.70
2022-08-10T11:17:14.546Z,24.70
2022-08-10T11:20:25.341Z,24.70
2022-08-10T11:22:58.595Z,24.80
2022-08-10T11:25:32.943Z,24.80
2022-08-10T11:28:20.941Z,24.80
2022-08-10T11:30:55.912Z,24.80
2022-08-10T11:36:33.617Z,25.00
2022-08-10T11:39:14.839Z,24.90
2022-08-10T11:42:09.551Z,24.80
2022-08-10T11:44:54.406Z,24.70
2022-08-10T11:47:27.705Z,24.70
2022-08-10T11:50:08.504Z,24.80
2022-08-10T11:52:54.155Z,24.80
2022-08-10T11:55:24.100Z,24.80
2022-08-10T11:57:55.816Z,24.90
2022-08-10T12:00:25.007Z,24.90
2022-08-10T12:03:00.653Z,25.00
2022-08-10T12:05:46.418Z,25.00
2022-08-10T12:10:06.058Z,25.00
2022-08-10T12:11:17.206Z,25.10
2022-08-10T12:14:22.772Z,25.00
2022-08-10T12:17:18.669Z,25.20
2022-08-10T12:20:01.689Z,25.10
2022-08-10T12:22:48.808Z,25.30
2022-08-10T12:25:55.783Z,25.20
2022-08-10T12:28:23.156Z,25.30
2022-08-10T12:31:13.584Z,25.30
2022-08-10T12:34:15.851Z,25.40
2022-08-10T12:36:48.321Z,25.30
2022-08-10T12:39:43.520Z,25.30
2022-08-10T12:42:40.551Z,25.40
2022-08-10T12:45:16.047Z,25.40
2022-08-10T12:48:03.849Z,25.30
2022-08-10T12:50:55.692Z,25.40
2022-08-10T12:53:46.092Z,25.40
2022-08-10T12:56:24.901Z,25.30
2022-08-10T12:58:57.773Z,25.30
2022-08-10T13:02:06.551Z,25.30
2022-08-10T13:04:24.718Z,25.30
2022-08-10T13:06:53.173Z,25.30
2022-08-10T13:09:25.153Z,25.40
2022-08-10T13:12:44.406Z,25.30
2022-08-10T13:14:58.543Z,25.40
2022-08-10T13:17:39.971Z,25.60
2022-08-10T13:20:19.713Z,25.60
2022-08-10T13:22:49.662Z,25.50
2022-08-10T13:25:22.431Z,25.50
2022-08-10T13:28:00.656Z,25.70
2022-08-10T13:30:37.201Z,25.70
2022-08-10T13:33:05.914Z,25.70
2022-08-10T13:35:34.714Z,25.80
2022-08-10T13:38:03.478Z,25.80
2022-08-10T13:40:32.616Z,25.70
2022-08-10T13:43:01.841Z,25.70
2022-08-10T13:45:29.378Z,25.70
2022-08-10T13:48:14.198Z,26.00
2022-08-10T13:50:42.657Z,26.50
2022-08-10T13:53:15.302Z,26.60
2022-08-10T13:55:55.022Z,26.40
2022-08-10T13:58:38.110Z,26.40
2022-08-10T14:01:15.269Z,26.80
2022-08-10T14:03:44.264Z,27.00
2022-08-10T14:06:14.112Z,27.80
2022-08-10T14:08:49.214Z,28.10
2022-08-10T14:11:18.893Z,28.60
2022-08-10T14:13:58.725Z,29.20
2022-08-10T14:16:26.654Z,30.60
2022-08-10T14:18:56.830Z,31.40
2022-08-10T14:21:23.901Z,31.20
2022-08-10T14:23:52.750Z,31.20
2022-08-10T14:26:28.216Z,31.30
2022-08-10T14:29:09.177Z,31.60
2022-08-10T14:31:39.233Z,31.40
2022-08-10T14:34:59.561Z,31.10
2022-08-10T14:37:31.029Z,31.30
2022-08-10T14:40:17.412Z,31.50
2022-08-10T14:42:51.268Z,31.80
2022-08-10T14:45:26.248Z,32.90
2022-08-10T14:48:03.590Z,33.10
2022-08-10T14:50:33.726Z,33.10
2022-08-10T14:53:16.610Z,33.20
2022-08-10T14:55:58.807Z,32.90
2022-08-10T14:59:05.943Z,33.20
2022-08-10T15:02:00.240Z,33.10
2022-08-10T15:04:28.330Z,32.60
2022-08-10T15:07:04.627Z,32.60
2022-08-10T15:10:01.114Z,32.90
2022-08-10T15:12:38.272Z,33.40
2022-08-10T15:15:09.450Z,33.40
2022-08-10T15:17:40.834Z,32.80
2022-08-10T15:20:21.248Z,32.30
2022-08-10T15:22:52.213Z,32.20
2022-08-10T15:25:25.262Z,32.40
2022-08-10T15:28:05.698Z,32.60
2022-08-10T15:30:58.011Z,33.00
2022-08-10T15:34:04.057Z,33.30
2022-08-10T15:37:02.016Z,33.10
2022-08-10T15:40:20.639Z,32.50
2022-08-10T15:42:35.222Z,32.40
2022-08-10T15:45:02.784Z,32.10
2022-08-10T15:47:49.802Z,32.10
2022-08-10T15:50:21.848Z,31.80
2022-08-10T15:53:03.993Z,31.70
2022-08-10T15:55:41.512Z,30.90
2022-08-10T15:58:19.742Z,30.40
2022-08-10T16:00:56.319Z,30.00
2022-08-10T16:03:41.013Z,29.80
2022-08-10T16:06:09.319Z,29.40
2022-08-10T16:08:56.590Z,29.10
2022-08-10T16:11:40.652Z,28.80
2022-08-10T16:14:17.009Z,28.60
2022-08-10T16:16:49.436Z,28.60
2022-08-10T16:19:25.038Z,28.10
2022-08-10T16:22:04.504Z,28.00
2022-08-10T16:24:52.325Z,27.90
2022-08-10T16:27:22.498Z,27.70
2022-08-10T16:29:53.437Z,27.60
2022-08-10T16:32:25.415Z,27.40
2022-08-10T16:34:55.345Z,27.20
2022-08-10T16:37:22.722Z,27.20
2022-08-10T16:39:57.986Z,27.20
2022-08-10T16:42:34.221Z,27.00
2022-08-10T16:45:08.385Z,26.90
2022-08-10T16:47:44.100Z,27.00
2022-08-10T16:50:12.314Z,26.80
2022-08-10T16:52:42.070Z,26.70
2022-08-10T16:55:24.519Z,26.70
2022-08-10T16:58:09.217Z,26.40
2022-08-10T17:00:36.710Z,26.30
2022-08-10T17:04:04.519Z,26.30
2022-08-10T17:06:03.499Z,26.20
2022-08-10T17:08:48.585Z,26.20
2022-08-10T17:11:17.596Z,26.10
2022-08-10T17:13:44.623Z,26.10
2022-08-10T17:16:13.409Z,26.10
2022-08-10T17:18:46.599Z,26.00
2022-08-10T17:21:21.694Z,25.80
2022-08-10T17:23:54.726Z,25.70
2022-08-10T17:26:35.275Z,25.70
2022-08-10T17:29:53.059Z,25.50
2022-08-10T17:32:14.779Z,25.40
2022-08-10T17:34:48.635Z,25.30
2022-08-10T17:37:22.388Z,25.10
2022-08-10T17:39:58.731Z,25.00
2022-08-10T17:42:26.762Z,24.90
2022-08-10T17:44:55.307Z,24.90
2022-08-10T17:47:27.077Z,24.80
2022-08-10T17:49:58.845Z,24.60
2022-08-10T17:52:29.667Z,24.40
2022-08-10T17:55:03.919Z,24.20
2022-08-10T17:57:36.709Z,24.20
2022-08-10T18:00:05.706Z,24.10
2022-08-10T18:02:37.496Z,24.00
2022-08-10T18:05:08.234Z,24.00
2022-08-10T18:07:39.190Z,23.90
2022-08-10T18:10:09.374Z,24.00
2022-08-10T18:13:09.113Z,23.70
2022-08-10T18:15:39.333Z,23.60
2022-08-10T18:18:15.517Z,23.50
2022-08-10T18:20:43.213Z,23.40
2022-08-10T18:23:10.917Z,23.40
2022-08-10T18:25:40.331Z,23.30
2022-08-10T18:28:18.998Z,23.30
2022-08-10T18:30:49.852Z,23.20
2022-08-10T18:33:18.815Z,23.10
2022-08-10T18:35:47.871Z,23.10
2022-08-10T18:38:16.629Z,23.00
2022-08-10T18:40:55.690Z,22.90
2022-08-10T18:44:05.657Z,22.90
2022-08-10T18:46:21.743Z,22.80
2022-08-10T18:49:09.547Z,22.70
2022-08-10T18:51:46.807Z,22.60
2022-08-10T18:54:31.301Z,22.50
2022-08-10T18:57:55.971Z,22.50
2022-08-10T19:00:27.394Z,22.30
2022-08-10T19:03:25.654Z,22.10
2022-08-10T19:06:23.309Z,21.90
2022-08-10T19:09:46.259Z,21.70
2022-08-10T19:12:36.501Z,21.60
2022-08-10T19:15:28.326Z,21.50
2022-08-10T19:18:19.801Z,21.40
2022-08-10T19:21:02.272Z,21.40
2022-08-10T19:23:44.002Z,21.40
2022-08-10T19:26:44.388Z,21.40
2022-08-10T19:30:10.779Z,21.30
2022-08-10T19:32:19.567Z,21.10
2022-08-10T19:34:57.053Z,21.20
2022-08-10T19:37:32.749Z,21.10
2022-08-10T19:40:43.887Z,21.10
2022-08-10T19:44:00.020Z,21.10
2022-08-10T19:46:37.832Z,21.00
2022-08-10T19:49:30.285Z,20.90
2022-08-10T19:52:11.433Z,21.00
2022-08-10T19:54:54.371Z,20.80
2022-08-10T19:57:51.664Z,21.10
2022-08-10T20:00:24.229Z,20.90
2022-08-10T20:03:15.512Z,20.90
2022-08-10T20:06:19.169Z,20.80
2022-08-10T20:08:58.812Z,20.90
2022-08-10T20:14:22.185Z,20.80
2022-08-10T20:16:55.795Z,21.10
2022-08-10T20:19:52.546Z,20.60
2022-08-10T20:22:33.237Z,21.00
2022-08-10T20:25:14.237Z,21.40
2022-08-10T20:28:14.623Z,20.40
2022-08-10T20:30:53.137Z,20.50
2022-08-10T20:33:31.784Z,20.60
2022-08-10T20:36:21.617Z,20.40
2022-08-10T20:39:04.405Z,21.40
2022-08-10T20:42:02.193Z,20.60
2022-08-10T20:44:50.712Z,20.40
2022-08-10T20:47:36.979Z,20.60
2022-08-10T20:50:29.679Z,20.70
2022-08-10T20:53:03.943Z,19.20
2022-08-10T20:56:05.734Z,20.10
2022-08-10T20:58:59.094Z,20.10
2022-08-10T21:02:06.163Z,20.70
2022-08-10T21:05:02.822Z,21.00
2022-08-10T21:08:00.528Z,20.00
2022-08-10T21:10:59.733Z,20.40
2022-08-10T21:13:35.487Z,20.00
2022-08-10T21:16:26.521Z,20.00
2022-08-10T21:19:08.897Z,20.00
2022-08-10T21:22:01.363Z,19.90
2022-08-10T21:24:35.814Z,19.80
2022-08-10T21:30:13.004Z,20.00
2022-08-10T21:32:59.526Z,19.90
2022-08-10T21:35:44.869Z,19.80
2022-08-10T21:38:52.396Z,20.00
2022-08-10T21:42:14.881Z,19.80
2022-08-10T21:45:57.896Z,19.60
2022-08-10T21:52:06.795Z,19.60
2022-08-10T21:55:02.491Z,19.60
2022-08-10T21:58:08.878Z,19.60
2022-08-10T22:01:15.516Z,19.50
2022-08-10T22:04:02.473Z,19.70
2022-08-10T22:06:52.972Z,19.90
2022-08-10T22:09:45.426Z,19.60
2022-08-10T22:12:33.678Z,19.40
2022-08-10T22:16:05.594Z,19.30
2022-08-10T22:18:59.501Z,19.10
2022-08-10T22:22:26.799Z,19.10
2022-08-10T22:26:01.346Z,19.00
2022-08-10T22:28:48.860Z,19.00
2022-08-10T22:31:27.692Z,20.20
2022-08-10T22:31:28.724Z,19.70
2022-08-10T22:31:53.715Z,19.00
2022-08-10T22:35:08.376Z,19.00
2022-08-10T22:38:16.908Z,19.00
2022-08-10T22:41:04.302Z,18.70
2022-08-10T22:43:52.665Z,18.70
2022-08-10T22:46:44.180Z,18.80
2022-08-10T22:49:11.923Z,18.70
2022-08-10T22:51:50.398Z,18.70
2022-08-10T22:54:52.509Z,18.60
2022-08-10T22:57:38.654Z,18.70
2022-08-10T23:00:31.225Z,18.70
2022-08-10T23:03:27.489Z,18.70
2022-08-10T23:06:06.151Z,19.10
2022-08-10T23:08:42.726Z,18.70
2022-08-10T23:11:19.102Z,18.60
2022-08-10T23:13:47.183Z,18.60
2022-08-10T23:16:40.026Z,18.60
2022-08-10T23:19:29.416Z,18.40
2022-08-10T23:22:09.187Z,18.40
2022-08-10T23:24:43.225Z,18.50
2022-08-10T23:27:37.882Z,18.20
2022-08-10T23:30:09.276Z,18.20
2022-08-10T23:32:40.933Z,18.20
2022-08-10T23:36:29.499Z,18.10
2022-08-10T23:38:02.036Z,18.10
2022-08-10T23:40:29.184Z,18.00
2022-08-10T23:42:57.643Z,18.00
2022-08-10T23:45:27.778Z,17.90
2022-08-10T23:48:00.257Z,17.90
2022-08-10T23:50:28.392Z,17.80
2022-08-10T23:52:59.330Z,17.80
2022-08-10T23:55:33.982Z,17.90
2022-08-10T23:58:33.602Z,17.90
